Terminal Aerodrome Forecast
Issued by NWS Los Angeles, CA

Home | Current Version | Previous Version | Text Only | Print | Product List | Glossary On
Versions: 1 2 3 4 5 6 7 8 9 10 11 12
856
FTUS46 KLOX 092325
TAFSMX
TAF
KSMX 092325Z 1000/1024 32008KT P6SM SCT250
     FM100200 VRB03KT P6SM SCT250
     FM102200 32008KT P6SM SKC=

USA.gov is the U.S. government's official web portal to all federal, state and local government web resources and services.